Tohshi — 3EJO5 — position and weather

sailwx.info

Track history (hours):
 
Tides and Currents Weather Stations Pressure Air Temp Water Temp Dewpoint Dewpoint Depression Visibility Wind Speed Wind Dir Waves Ship Positions

Tohshi

Last reported at 2017-May-07 05:39 UTC. Time now 2017-May-22 17:24 UTC.
Position N 01°15' E 104°06'.
Warning: this ship's position is 15 days out of date.

Length 333 m; beam 60 m.

Type: Tanker. MMSI: 372582000.

Date/timePositionNaut miles runAvg speedWind from/ knotsBaromVisibWave heightAir tempDewpointWater temp
2017-May-07 05:39N 01°15' E 104°06'213.8
2017-May-07 05:29N 01°15' E 104°03'713.7
2017-May-07 05:00N 01°14' E 103°57'612.4
2017-May-07 04:30N 01°11' E 103°51'611.7
2017-May-07 04:00N 01°09' E 103°46'511.0
2017-May-07 03:30N 01°05' E 103°42'510.5
2017-May-07 03:00N 01°04' E 103°37'612.7
2017-May-07 02:30N 01°08' E 103°32'712.9
2017-May-07 01:58N 01°11' E 103°26'6412.0
2017-May-06 20:38N 01°46' E 102°32'211.6
2017-May-06 20:30N 01°46' E 102°30'611.3
2017-May-06 20:00N 01°49' E 102°25'  
Track history (hours):
 
Tides and Currents Weather Stations Pressure Air Temp Water Temp Dewpoint Dewpoint Depression Visibility Wind Speed Wind Dir Waves Ship Positions

Tohshi

Last reported at 2017-May-07 05:39 UTC. Time now 2017-May-22 17:24 UTC.
Position N 01°15' E 104°06'.
Warning: this ship's position is 15 days out of date.

Length 333 m; beam 60 m.

Type: Tanker. MMSI: 372582000.

Date/timePositionNaut miles runAvg speedWind from/ knotsBaromVisibWave heightAir tempDewpointWater temp
2017-May-07 05:39N 01°15' E 104°06'213.8
2017-May-07 05:29N 01°15' E 104°03'713.7
2017-May-07 05:00N 01°14' E 103°57'612.4
2017-May-07 04:30N 01°11' E 103°51'611.7
2017-May-07 04:00N 01°09' E 103°46'511.0
2017-May-07 03:30N 01°05' E 103°42'510.5
2017-May-07 03:00N 01°04' E 103°37'612.7
2017-May-07 02:30N 01°08' E 103°32'712.9
2017-May-07 01:58N 01°11' E 103°26'6412.0
2017-May-06 20:38N 01°46' E 102°32'211.6
2017-May-06 20:30N 01°46' E 102°30'611.3
2017-May-06 20:00N 01°49' E 102°25'  

Dump ship's entire track history